sensor_id;sensor_type;location;lat;lon;timestamp;P1;durP1;ratioP1;P2;durP2;ratioP2
76826;SDS011;65788;52.284;20.890;2023-06-22T00:02:04;15.70;;;14.20;;
76826;SDS011;65788;52.284;20.890;2023-06-22T00:04:31;15.40;;;13.60;;
76826;SDS011;65788;52.284;20.890;2023-06-22T00:06:57;15.20;;;13.60;;
76826;SDS011;65788;52.284;20.890;2023-06-22T00:09:25;15.00;;;13.40;;
76826;SDS011;65788;52.284;20.890;2023-06-22T00:11:53;14.10;;;12.80;;
76826;SDS011;65788;52.284;20.890;2023-06-22T00:14:19;14.40;;;13.10;;
76826;SDS011;65788;52.284;20.890;2023-06-22T00:16:47;14.20;;;12.80;;
76826;SDS011;65788;52.284;20.890;2023-06-22T00:19:15;15.20;;;13.60;;
76826;SDS011;65788;52.284;20.890;2023-06-22T00:21:42;14.90;;;13.60;;
76826;SDS011;65788;52.284;20.890;2023-06-22T00:24:10;15.00;;;13.50;;
76826;SDS011;65788;52.284;20.890;2023-06-22T00:26:37;15.00;;;13.60;;
76826;SDS011;65788;52.284;20.890;2023-06-22T00:29:03;15.50;;;14.00;;
76826;SDS011;65788;52.284;20.890;2023-06-22T00:31:31;15.40;;;13.90;;
76826;SDS011;65788;52.284;20.890;2023-06-22T00:33:58;15.80;;;14.30;;
76826;SDS011;65788;52.284;20.890;2023-06-22T00:36:25;15.30;;;13.50;;
76826;SDS011;65788;52.284;20.890;2023-06-22T00:38:52;15.10;;;13.70;;
76826;SDS011;65788;52.284;20.890;2023-06-22T00:41:19;15.70;;;14.30;;
76826;SDS011;65788;52.284;20.890;2023-06-22T00:43:46;14.40;;;13.00;;
76826;SDS011;65788;52.284;20.890;2023-06-22T00:46:13;14.40;;;13.10;;
76826;SDS011;65788;52.284;20.890;2023-06-22T00:51:12;15.00;;;13.60;;
76826;SDS011;65788;52.284;20.890;2023-06-22T00:53:39;14.70;;;13.30;;
76826;SDS011;65788;52.284;20.890;2023-06-22T00:56:07;15.60;;;14.00;;
76826;SDS011;65788;52.284;20.890;2023-06-22T00:58:36;14.00;;;12.70;;
76826;SDS011;65788;52.284;20.890;2023-06-22T01:01:03;15.40;;;13.90;;
76826;SDS011;65788;52.284;20.890;2023-06-22T01:03:30;14.20;;;12.80;;
76826;SDS011;65788;52.284;20.890;2023-06-22T01:06:00;14.80;;;13.30;;
76826;SDS011;65788;52.284;20.890;2023-06-22T01:08:56;13.90;;;12.70;;
76826;SDS011;65788;52.284;20.890;2023-06-22T01:11:37;14.70;;;13.30;;
76826;SDS011;65788;52.284;20.890;2023-06-22T01:14:19;14.40;;;13.10;;
76826;SDS011;65788;52.284;20.890;2023-06-22T01:16:52;15.50;;;13.90;;
76826;SDS011;65788;52.284;20.890;2023-06-22T01:19:29;14.40;;;12.90;;
76826;SDS011;65788;52.284;20.890;2023-06-22T01:22:05;14.30;;;13.10;;
76826;SDS011;65788;52.284;20.890;2023-06-22T01:29:58;15.00;;;13.70;;
76826;SDS011;65788;52.284;20.890;2023-06-22T01:32:31;15.50;;;14.00;;
76826;SDS011;65788;52.284;20.890;2023-06-22T01:35:01;14.20;;;12.80;;
76826;SDS011;65788;52.284;20.890;2023-06-22T01:37:32;15.60;;;14.10;;
76826;SDS011;65788;52.284;20.890;2023-06-22T01:40:02;15.20;;;13.90;;
76826;SDS011;65788;52.284;20.890;2023-06-22T01:42:33;15.10;;;13.70;;
76826;SDS011;65788;52.284;20.890;2023-06-22T01:45:03;15.10;;;13.60;;
76826;SDS011;65788;52.284;20.890;2023-06-22T01:47:33;15.50;;;14.00;;
76826;SDS011;65788;52.284;20.890;2023-06-22T01:50:00;15.80;;;14.30;;
76826;SDS011;65788;52.284;20.890;2023-06-22T01:52:27;15.90;;;14.40;;
76826;SDS011;65788;52.284;20.890;2023-06-22T01:54:55;16.00;;;14.40;;
76826;SDS011;65788;52.284;20.890;2023-06-22T01:57:24;16.00;;;14.50;;
76826;SDS011;65788;52.284;20.890;2023-06-22T01:59:58;14.80;;;13.50;;
76826;SDS011;65788;52.284;20.890;2023-06-22T02:02:31;15.90;;;14.30;;
76826;SDS011;65788;52.284;20.890;2023-06-22T02:05:21;15.60;;;14.10;;
76826;SDS011;65788;52.284;20.890;2023-06-22T02:07:55;16.70;;;15.00;;
76826;SDS011;65788;52.284;20.890;2023-06-22T02:10:37;15.90;;;14.40;;
76826;SDS011;65788;52.284;20.890;2023-06-22T02:13:07;16.20;;;14.60;;
76826;SDS011;65788;52.284;20.890;2023-06-22T02:15:37;15.60;;;14.10;;
76826;SDS011;65788;52.284;20.890;2023-06-22T02:18:04;16.40;;;14.90;;
76826;SDS011;65788;52.284;20.890;2023-06-22T02:20:31;17.10;;;15.50;;
76826;SDS011;65788;52.284;20.890;2023-06-22T02:22:59;17.30;;;15.70;;
76826;SDS011;65788;52.284;20.890;2023-06-22T02:25:26;17.90;;;16.00;;
76826;SDS011;65788;52.284;20.890;2023-06-22T02:27:53;17.60;;;16.00;;
76826;SDS011;65788;52.284;20.890;2023-06-22T02:30:21;17.40;;;15.80;;
76826;SDS011;65788;52.284;20.890;2023-06-22T02:32:47;18.80;;;17.10;;
76826;SDS011;65788;52.284;20.890;2023-06-22T02:35:14;19.60;;;17.70;;
76826;SDS011;65788;52.284;20.890;2023-06-22T02:37:42;20.80;;;18.70;;
76826;SDS011;65788;52.284;20.890;2023-06-22T02:40:09;19.90;;;17.90;;
76826;SDS011;65788;52.284;20.890;2023-06-22T02:42:37;21.50;;;19.50;;
76826;SDS011;65788;52.284;20.890;2023-06-22T02:45:05;19.70;;;17.90;;
76826;SDS011;65788;52.284;20.890;2023-06-22T02:47:33;18.90;;;17.20;;
76826;SDS011;65788;52.284;20.890;2023-06-22T02:50:00;21.00;;;19.00;;
76826;SDS011;65788;52.284;20.890;2023-06-22T02:52:29;20.10;;;18.10;;
76826;SDS011;65788;52.284;20.890;2023-06-22T02:54:55;23.10;;;20.70;;
76826;SDS011;65788;52.284;20.890;2023-06-22T02:57:22;22.00;;;19.80;;
76826;SDS011;65788;52.284;20.890;2023-06-22T02:59:50;22.30;;;20.20;;
76826;SDS011;65788;52.284;20.890;2023-06-22T03:02:17;22.50;;;20.40;;
76826;SDS011;65788;52.284;20.890;2023-06-22T03:04:44;23.70;;;21.40;;
76826;SDS011;65788;52.284;20.890;2023-06-22T03:07:12;24.70;;;22.30;;
76826;SDS011;65788;52.284;20.890;2023-06-22T03:09:38;25.70;;;23.20;;
76826;SDS011;65788;52.284;20.890;2023-06-22T03:12:06;24.30;;;21.90;;
76826;SDS011;65788;52.284;20.890;2023-06-22T03:14:34;23.90;;;21.50;;
76826;SDS011;65788;52.284;20.890;2023-06-22T03:17:01;26.20;;;23.60;;
76826;SDS011;65788;52.284;20.890;2023-06-22T03:19:29;26.40;;;23.70;;
76826;SDS011;65788;52.284;20.890;2023-06-22T03:22:00;26.20;;;23.50;;
76826;SDS011;65788;52.284;20.890;2023-06-22T03:26:58;26.10;;;23.50;;
76826;SDS011;65788;52.284;20.890;2023-06-22T03:29:24;26.90;;;24.10;;
76826;SDS011;65788;52.284;20.890;2023-06-22T03:31:52;26.50;;;24.00;;
76826;SDS011;65788;52.284;20.890;2023-06-22T03:34:20;26.50;;;23.80;;
76826;SDS011;65788;52.284;20.890;2023-06-22T03:36:47;26.90;;;24.30;;
76826;SDS011;65788;52.284;20.890;2023-06-22T03:39:14;26.80;;;24.20;;
76826;SDS011;65788;52.284;20.890;2023-06-22T03:41:42;27.00;;;24.50;;
76826;SDS011;65788;52.284;20.890;2023-06-22T03:44:08;28.90;;;26.00;;
76826;SDS011;65788;52.284;20.890;2023-06-22T03:46:41;27.20;;;24.60;;
76826;SDS011;65788;52.284;20.890;2023-06-22T03:49:07;25.50;;;23.00;;
76826;SDS011;65788;52.284;20.890;2023-06-22T03:51:34;29.70;;;26.70;;
76826;SDS011;65788;52.284;20.890;2023-06-22T03:54:02;27.40;;;24.70;;
76826;SDS011;65788;52.284;20.890;2023-06-22T03:56:29;28.90;;;26.10;;
76826;SDS011;65788;52.284;20.890;2023-06-22T03:58:56;28.60;;;25.90;;
76826;SDS011;65788;52.284;20.890;2023-06-22T04:01:24;29.10;;;26.30;;
76826;SDS011;65788;52.284;20.890;2023-06-22T04:03:50;27.80;;;25.10;;
76826;SDS011;65788;52.284;20.890;2023-06-22T04:06:17;27.70;;;24.90;;
76826;SDS011;65788;52.284;20.890;2023-06-22T04:08:45;27.90;;;25.20;;
76826;SDS011;65788;52.284;20.890;2023-06-22T04:11:14;27.80;;;25.10;;
76826;SDS011;65788;52.284;20.890;2023-06-22T04:13:43;28.20;;;25.60;;
76826;SDS011;65788;52.284;20.890;2023-06-22T04:16:10;26.60;;;24.00;;
76826;SDS011;65788;52.284;20.890;2023-06-22T04:18:37;27.40;;;24.70;;
76826;SDS011;65788;52.284;20.890;2023-06-22T04:21:05;27.60;;;24.70;;
76826;SDS011;65788;52.284;20.890;2023-06-22T04:23:31;27.70;;;24.90;;
76826;SDS011;65788;52.284;20.890;2023-06-22T04:25:58;27.90;;;25.30;;
76826;SDS011;65788;52.284;20.890;2023-06-22T04:28:27;27.70;;;25.10;;
76826;SDS011;65788;52.284;20.890;2023-06-22T04:30:53;27.20;;;24.60;;
76826;SDS011;65788;52.284;20.890;2023-06-22T04:33:30;27.30;;;24.60;;
76826;SDS011;65788;52.284;20.890;2023-06-22T04:35:57;27.90;;;25.20;;
76826;SDS011;65788;52.284;20.890;2023-06-22T04:38:28;26.20;;;23.70;;
76826;SDS011;65788;52.284;20.890;2023-06-22T04:40:55;26.50;;;24.00;;
76826;SDS011;65788;52.284;20.890;2023-06-22T04:43:23;25.30;;;22.90;;
76826;SDS011;65788;52.284;20.890;2023-06-22T04:45:51;26.30;;;23.70;;
76826;SDS011;65788;52.284;20.890;2023-06-22T04:48:20;27.20;;;24.60;;
76826;SDS011;65788;52.284;20.890;2023-06-22T04:50:46;26.40;;;23.80;;
76826;SDS011;65788;52.284;20.890;2023-06-22T04:53:14;24.40;;;21.90;;
76826;SDS011;65788;52.284;20.890;2023-06-22T04:55:41;25.00;;;22.40;;
76826;SDS011;65788;52.284;20.890;2023-06-22T04:58:08;25.30;;;22.90;;
76826;SDS011;65788;52.284;20.890;2023-06-22T05:00:36;25.30;;;22.50;;
76826;SDS011;65788;52.284;20.890;2023-06-22T05:03:02;26.70;;;23.80;;
76826;SDS011;65788;52.284;20.890;2023-06-22T05:05:29;29.00;;;25.70;;
76826;SDS011;65788;52.284;20.890;2023-06-22T05:07:57;25.80;;;23.10;;
76826;SDS011;65788;52.284;20.890;2023-06-22T05:10:27;27.30;;;24.60;;
76826;SDS011;65788;52.284;20.890;2023-06-22T05:12:58;28.60;;;23.50;;
76826;SDS011;65788;52.284;20.890;2023-06-22T05:15:25;25.80;;;23.20;;
76826;SDS011;65788;52.284;20.890;2023-06-22T05:17:57;33.20;;;25.90;;
76826;SDS011;65788;52.284;20.890;2023-06-22T05:20:25;25.20;;;21.50;;
76826;SDS011;65788;52.284;20.890;2023-06-22T05:22:51;29.20;;;23.50;;
76826;SDS011;65788;52.284;20.890;2023-06-22T05:25:19;26.40;;;22.80;;
76826;SDS011;65788;52.284;20.890;2023-06-22T05:27:46;24.10;;;21.00;;
76826;SDS011;65788;52.284;20.890;2023-06-22T05:30:13;28.10;;;25.20;;
76826;SDS011;65788;52.284;20.890;2023-06-22T05:32:41;25.60;;;21.60;;
76826;SDS011;65788;52.284;20.890;2023-06-22T05:35:10;25.80;;;23.00;;
76826;SDS011;65788;52.284;20.890;2023-06-22T05:37:36;23.10;;;20.60;;
76826;SDS011;65788;52.284;20.890;2023-06-22T05:40:05;23.90;;;21.40;;
76826;SDS011;65788;52.284;20.890;2023-06-22T05:42:33;23.70;;;20.10;;
76826;SDS011;65788;52.284;20.890;2023-06-22T05:45:00;25.80;;;19.30;;
76826;SDS011;65788;52.284;20.890;2023-06-22T05:47:28;26.30;;;23.70;;
76826;SDS011;65788;52.284;20.890;2023-06-22T05:49:54;22.40;;;19.60;;
76826;SDS011;65788;52.284;20.890;2023-06-22T05:52:21;20.40;;;18.40;;
76826;SDS011;65788;52.284;20.890;2023-06-22T05:54:49;22.30;;;19.70;;
76826;SDS011;65788;52.284;20.890;2023-06-22T05:57:18;23.60;;;20.80;;
76826;SDS011;65788;52.284;20.890;2023-06-22T05:59:44;19.80;;;17.50;;
76826;SDS011;65788;52.284;20.890;2023-06-22T06:02:12;20.60;;;18.50;;
76826;SDS011;65788;52.284;20.890;2023-06-22T06:04:39;22.90;;;20.40;;
76826;SDS011;65788;52.284;20.890;2023-06-22T06:07:06;25.60;;;21.30;;
76826;SDS011;65788;52.284;20.890;2023-06-22T06:09:34;20.80;;;18.30;;
76826;SDS011;65788;52.284;20.890;2023-06-22T06:12:01;20.40;;;18.30;;
76826;SDS011;65788;52.284;20.890;2023-06-22T06:14:29;22.20;;;19.30;;
76826;SDS011;65788;52.284;20.890;2023-06-22T06:16:57;21.40;;;19.10;;
76826;SDS011;65788;52.284;20.890;2023-06-22T06:19:24;20.90;;;18.60;;
76826;SDS011;65788;52.284;20.890;2023-06-22T06:21:50;21.80;;;17.70;;
76826;SDS011;65788;52.284;20.890;2023-06-22T06:24:18;18.10;;;16.20;;
76826;SDS011;65788;52.284;20.890;2023-06-22T06:26:45;19.60;;;15.90;;
76826;SDS011;65788;52.284;20.890;2023-06-22T06:29:12;16.80;;;15.00;;
76826;SDS011;65788;52.284;20.890;2023-06-22T06:31:39;18.90;;;16.70;;
76826;SDS011;65788;52.284;20.890;2023-06-22T06:34:06;17.70;;;15.20;;
76826;SDS011;65788;52.284;20.890;2023-06-22T06:36:37;17.20;;;14.60;;
76826;SDS011;65788;52.284;20.890;2023-06-22T06:39:04;19.40;;;15.00;;
76826;SDS011;65788;52.284;20.890;2023-06-22T06:41:31;17.00;;;14.30;;
76826;SDS011;65788;52.284;20.890;2023-06-22T06:43:59;15.70;;;13.80;;
76826;SDS011;65788;52.284;20.890;2023-06-22T06:46:26;15.80;;;14.00;;
76826;SDS011;65788;52.284;20.890;2023-06-22T06:48:53;15.30;;;13.70;;
76826;SDS011;65788;52.284;20.890;2023-06-22T06:51:21;16.90;;;13.60;;
76826;SDS011;65788;52.284;20.890;2023-06-22T06:53:48;16.60;;;13.70;;
76826;SDS011;65788;52.284;20.890;2023-06-22T06:56:14;23.80;;;14.40;;
76826;SDS011;65788;52.284;20.890;2023-06-22T06:58:45;23.00;;;14.60;;
76826;SDS011;65788;52.284;20.890;2023-06-22T07:01:12;17.50;;;14.20;;
76826;SDS011;65788;52.284;20.890;2023-06-22T07:03:39;18.10;;;14.80;;
76826;SDS011;65788;52.284;20.890;2023-06-22T07:06:08;19.30;;;13.20;;
76826;SDS011;65788;52.284;20.890;2023-06-22T07:08:35;17.00;;;12.90;;
76826;SDS011;65788;52.284;20.890;2023-06-22T07:11:03;16.80;;;13.10;;
76826;SDS011;65788;52.284;20.890;2023-06-22T07:13:31;14.60;;;12.40;;
76826;SDS011;65788;52.284;20.890;2023-06-22T07:15:58;14.20;;;11.90;;
76826;SDS011;65788;52.284;20.890;2023-06-22T07:18:25;15.00;;;11.40;;
76826;SDS011;65788;52.284;20.890;2023-06-22T07:20:54;18.00;;;11.90;;
76826;SDS011;65788;52.284;20.890;2023-06-22T07:23:23;20.40;;;10.70;;
76826;SDS011;65788;52.284;20.890;2023-06-22T07:25:49;14.40;;;11.70;;
76826;SDS011;65788;52.284;20.890;2023-06-22T07:28:17;14.90;;;11.10;;
76826;SDS011;65788;52.284;20.890;2023-06-22T07:30:44;12.00;;;10.70;;
76826;SDS011;65788;52.284;20.890;2023-06-22T07:33:10;14.30;;;9.80;;
76826;SDS011;65788;52.284;20.890;2023-06-22T07:35:38;12.80;;;9.40;;
76826;SDS011;65788;52.284;20.890;2023-06-22T07:38:05;11.00;;;9.00;;
76826;SDS011;65788;52.284;20.890;2023-06-22T07:40:32;13.70;;;9.20;;
76826;SDS011;65788;52.284;20.890;2023-06-22T07:43:02;13.70;;;9.80;;
76826;SDS011;65788;52.284;20.890;2023-06-22T07:45:29;11.80;;;8.20;;
76826;SDS011;65788;52.284;20.890;2023-06-22T07:48:01;9.50;;;7.70;;
76826;SDS011;65788;52.284;20.890;2023-06-22T07:50:28;12.10;;;8.30;;
76826;SDS011;65788;52.284;20.890;2023-06-22T07:52:54;10.00;;;7.40;;
76826;SDS011;65788;52.284;20.890;2023-06-22T07:55:22;8.50;;;6.90;;
76826;SDS011;65788;52.284;20.890;2023-06-22T07:57:49;11.20;;;7.40;;
76826;SDS011;65788;52.284;20.890;2023-06-22T08:02:07;11.10;;;7.30;;
76826;SDS011;65788;52.284;20.890;2023-06-22T08:04:35;9.70;;;7.50;;
76826;SDS011;65788;52.284;20.890;2023-06-22T08:07:02;12.10;;;7.80;;
76826;SDS011;65788;52.284;20.890;2023-06-22T08:09:30;10.90;;;6.70;;
76826;SDS011;65788;52.284;20.890;2023-06-22T08:11:59;11.30;;;7.30;;
76826;SDS011;65788;52.284;20.890;2023-06-22T08:14:29;9.30;;;6.30;;
76826;SDS011;65788;52.284;20.890;2023-06-22T08:16:56;8.50;;;6.50;;
76826;SDS011;65788;52.284;20.890;2023-06-22T08:19:23;9.40;;;6.70;;
76826;SDS011;65788;52.284;20.890;2023-06-22T08:21:49;8.90;;;5.70;;
76826;SDS011;65788;52.284;20.890;2023-06-22T08:24:17;9.40;;;6.20;;
76826;SDS011;65788;52.284;20.890;2023-06-22T08:26:43;8.50;;;6.20;;
76826;SDS011;65788;52.284;20.890;2023-06-22T08:29:10;7.20;;;5.70;;
76826;SDS011;65788;52.284;20.890;2023-06-22T08:31:37;11.90;;;6.40;;
76826;SDS011;65788;52.284;20.890;2023-06-22T08:34:05;8.00;;;5.30;;
76826;SDS011;65788;52.284;20.890;2023-06-22T08:36:34;7.70;;;5.60;;
76826;SDS011;65788;52.284;20.890;2023-06-22T08:39:07;7.40;;;5.10;;
76826;SDS011;65788;52.284;20.890;2023-06-22T08:41:34;7.90;;;5.00;;
76826;SDS011;65788;52.284;20.890;2023-06-22T08:44:01;7.40;;;5.30;;
76826;SDS011;65788;52.284;20.890;2023-06-22T08:46:29;10.70;;;5.30;;
76826;SDS011;65788;52.284;20.890;2023-06-22T08:48:59;7.50;;;4.80;;
76826;SDS011;65788;52.284;20.890;2023-06-22T08:51:26;5.70;;;4.90;;
76826;SDS011;65788;52.284;20.890;2023-06-22T08:53:53;8.90;;;5.00;;
76826;SDS011;65788;52.284;20.890;2023-06-22T08:56:20;7.30;;;4.30;;
76826;SDS011;65788;52.284;20.890;2023-06-22T08:58:46;6.60;;;4.80;;
76826;SDS011;65788;52.284;20.890;2023-06-22T09:01:13;7.90;;;4.60;;
76826;SDS011;65788;52.284;20.890;2023-06-22T09:03:42;6.20;;;4.50;;
76826;SDS011;65788;52.284;20.890;2023-06-22T09:06:08;6.00;;;4.60;;
76826;SDS011;65788;52.284;20.890;2023-06-22T09:08:40;8.30;;;4.90;;
76826;SDS011;65788;52.284;20.890;2023-06-22T09:11:07;7.50;;;4.60;;
76826;SDS011;65788;52.284;20.890;2023-06-22T09:13:34;6.70;;;4.60;;
76826;SDS011;65788;52.284;20.890;2023-06-22T09:16:01;6.70;;;4.50;;
76826;SDS011;65788;52.284;20.890;2023-06-22T09:18:27;7.10;;;4.10;;
76826;SDS011;65788;52.284;20.890;2023-06-22T09:20:54;7.80;;;4.60;;
76826;SDS011;65788;52.284;20.890;2023-06-22T09:23:21;7.30;;;5.10;;
76826;SDS011;65788;52.284;20.890;2023-06-22T09:25:48;6.40;;;4.30;;
76826;SDS011;65788;52.284;20.890;2023-06-22T09:28:14;6.50;;;4.70;;
76826;SDS011;65788;52.284;20.890;2023-06-22T09:30:44;5.60;;;4.80;;
76826;SDS011;65788;52.284;20.890;2023-06-22T09:33:11;5.90;;;4.30;;
76826;SDS011;65788;52.284;20.890;2023-06-22T09:35:38;7.70;;;4.40;;
76826;SDS011;65788;52.284;20.890;2023-06-22T09:38:06;6.10;;;4.60;;
76826;SDS011;65788;52.284;20.890;2023-06-22T09:40:32;8.10;;;4.70;;
76826;SDS011;65788;52.284;20.890;2023-06-22T09:43:01;6.90;;;4.80;;
76826;SDS011;65788;52.284;20.890;2023-06-22T09:45:28;5.90;;;4.40;;
76826;SDS011;65788;52.284;20.890;2023-06-22T09:47:55;7.10;;;4.90;;
76826;SDS011;65788;52.284;20.890;2023-06-22T09:50:22;7.20;;;4.80;;
76826;SDS011;65788;52.284;20.890;2023-06-22T09:52:49;9.20;;;5.00;;
76826;SDS011;65788;52.284;20.890;2023-06-22T09:55:21;8.70;;;4.60;;
76826;SDS011;65788;52.284;20.890;2023-06-22T09:57:48;6.80;;;5.00;;
76826;SDS011;65788;52.284;20.890;2023-06-22T10:00:16;5.80;;;4.50;;
76826;SDS011;65788;52.284;20.890;2023-06-22T10:02:45;7.10;;;4.90;;
76826;SDS011;65788;52.284;20.890;2023-06-22T10:05:12;6.90;;;4.40;;
76826;SDS011;65788;52.284;20.890;2023-06-22T10:07:39;7.50;;;4.90;;
76826;SDS011;65788;52.284;20.890;2023-06-22T10:10:10;6.40;;;4.90;;
76826;SDS011;65788;52.284;20.890;2023-06-22T10:12:48;7.90;;;5.00;;
76826;SDS011;65788;52.284;20.890;2023-06-22T10:15:22;9.30;;;5.00;;
76826;SDS011;65788;52.284;20.890;2023-06-22T10:17:49;5.50;;;4.20;;
76826;SDS011;65788;52.284;20.890;2023-06-22T10:20:15;5.30;;;4.30;;
76826;SDS011;65788;52.284;20.890;2023-06-22T10:22:44;6.10;;;4.10;;
76826;SDS011;65788;52.284;20.890;2023-06-22T10:25:12;6.10;;;4.40;;
76826;SDS011;65788;52.284;20.890;2023-06-22T10:27:39;7.10;;;4.90;;
76826;SDS011;65788;52.284;20.890;2023-06-22T10:30:07;6.90;;;4.70;;
76826;SDS011;65788;52.284;20.890;2023-06-22T10:32:35;7.20;;;4.90;;
76826;SDS011;65788;52.284;20.890;2023-06-22T10:35:03;6.20;;;4.90;;
76826;SDS011;65788;52.284;20.890;2023-06-22T10:37:30;7.30;;;4.60;;
76826;SDS011;65788;52.284;20.890;2023-06-22T10:39:57;6.50;;;4.40;;
76826;SDS011;65788;52.284;20.890;2023-06-22T10:42:24;7.30;;;4.70;;
76826;SDS011;65788;52.284;20.890;2023-06-22T10:44:50;6.20;;;3.90;;
76826;SDS011;65788;52.284;20.890;2023-06-22T10:47:17;7.40;;;5.10;;
76826;SDS011;65788;52.284;20.890;2023-06-22T10:49:44;8.00;;;5.20;;
76826;SDS011;65788;52.284;20.890;2023-06-22T10:52:10;7.40;;;4.50;;
76826;SDS011;65788;52.284;20.890;2023-06-22T10:54:37;5.90;;;4.40;;
76826;SDS011;65788;52.284;20.890;2023-06-22T10:57:05;6.90;;;4.20;;
76826;SDS011;65788;52.284;20.890;2023-06-22T10:59:32;4.70;;;4.20;;
76826;SDS011;65788;52.284;20.890;2023-06-22T11:01:58;10.20;;;5.00;;
76826;SDS011;65788;52.284;20.890;2023-06-22T11:04:25;6.60;;;4.50;;
76826;SDS011;65788;52.284;20.890;2023-06-22T11:06:52;8.90;;;4.20;;
76826;SDS011;65788;52.284;20.890;2023-06-22T11:09:18;6.20;;;4.50;;
76826;SDS011;65788;52.284;20.890;2023-06-22T11:11:47;4.40;;;3.80;;
76826;SDS011;65788;52.284;20.890;2023-06-22T11:14:16;8.00;;;5.20;;
76826;SDS011;65788;52.284;20.890;2023-06-22T11:16:43;7.50;;;5.10;;
76826;SDS011;65788;52.284;20.890;2023-06-22T11:19:09;8.50;;;4.70;;
76826;SDS011;65788;52.284;20.890;2023-06-22T11:21:36;7.20;;;4.60;;
76826;SDS011;65788;52.284;20.890;2023-06-22T11:24:05;7.00;;;4.80;;
76826;SDS011;65788;52.284;20.890;2023-06-22T11:26:33;5.90;;;4.50;;
76826;SDS011;65788;52.284;20.890;2023-06-22T11:29:00;7.50;;;4.80;;
76826;SDS011;65788;52.284;20.890;2023-06-22T11:31:27;6.90;;;4.20;;
76826;SDS011;65788;52.284;20.890;2023-06-22T11:33:54;6.50;;;5.10;;
76826;SDS011;65788;52.284;20.890;2023-06-22T11:36:20;8.10;;;5.20;;
76826;SDS011;65788;52.284;20.890;2023-06-22T11:38:47;8.20;;;4.70;;
76826;SDS011;65788;52.284;20.890;2023-06-22T11:41:14;6.30;;;5.00;;
76826;SDS011;65788;52.284;20.890;2023-06-22T11:43:40;10.40;;;5.60;;
76826;SDS011;65788;52.284;20.890;2023-06-22T11:46:08;9.10;;;5.00;;
76826;SDS011;65788;52.284;20.890;2023-06-22T11:48:34;8.70;;;5.20;;
76826;SDS011;65788;52.284;20.890;2023-06-22T11:51:02;6.30;;;4.20;;
76826;SDS011;65788;52.284;20.890;2023-06-22T11:53:30;5.60;;;4.60;;
76826;SDS011;65788;52.284;20.890;2023-06-22T11:55:59;10.70;;;5.20;;
76826;SDS011;65788;52.284;20.890;2023-06-22T11:58:27;7.40;;;4.80;;
76826;SDS011;65788;52.284;20.890;2023-06-22T12:00:54;5.70;;;4.40;;
76826;SDS011;65788;52.284;20.890;2023-06-22T12:03:22;7.30;;;4.50;;
76826;SDS011;65788;52.284;20.890;2023-06-22T12:05:49;8.30;;;5.00;;
76826;SDS011;65788;52.284;20.890;2023-06-22T12:08:18;7.70;;;5.10;;
76826;SDS011;65788;52.284;20.890;2023-06-22T12:10:45;5.70;;;4.60;;
76826;SDS011;65788;52.284;20.890;2023-06-22T12:13:11;5.70;;;4.40;;
76826;SDS011;65788;52.284;20.890;2023-06-22T12:15:38;6.30;;;5.00;;
76826;SDS011;65788;52.284;20.890;2023-06-22T12:18:05;9.60;;;4.20;;
76826;SDS011;65788;52.284;20.890;2023-06-22T12:20:31;7.00;;;5.10;;
76826;SDS011;65788;52.284;20.890;2023-06-22T12:22:58;5.00;;;4.20;;
76826;SDS011;65788;52.284;20.890;2023-06-22T12:25:25;7.00;;;4.10;;
76826;SDS011;65788;52.284;20.890;2023-06-22T12:27:51;5.50;;;4.20;;
76826;SDS011;65788;52.284;20.890;2023-06-22T12:30:18;5.10;;;4.10;;
76826;SDS011;65788;52.284;20.890;2023-06-22T12:32:46;7.20;;;4.70;;
76826;SDS011;65788;52.284;20.890;2023-06-22T12:35:12;7.20;;;4.80;;
76826;SDS011;65788;52.284;20.890;2023-06-22T12:37:40;9.40;;;5.50;;
76826;SDS011;65788;52.284;20.890;2023-06-22T12:40:09;5.00;;;4.00;;
76826;SDS011;65788;52.284;20.890;2023-06-22T12:42:36;5.80;;;4.10;;
76826;SDS011;65788;52.284;20.890;2023-06-22T12:45:03;5.40;;;3.90;;
76826;SDS011;65788;52.284;20.890;2023-06-22T12:47:31;5.10;;;4.50;;
76826;SDS011;65788;52.284;20.890;2023-06-22T12:49:58;4.80;;;4.10;;
76826;SDS011;65788;52.284;20.890;2023-06-22T12:52:25;9.00;;;5.60;;
76826;SDS011;65788;52.284;20.890;2023-06-22T12:54:53;5.70;;;4.30;;
76826;SDS011;65788;52.284;20.890;2023-06-22T12:57:20;7.40;;;5.20;;
76826;SDS011;65788;52.284;20.890;2023-06-22T12:59:47;6.30;;;4.60;;
76826;SDS011;65788;52.284;20.890;2023-06-22T13:02:14;5.90;;;4.60;;
76826;SDS011;65788;52.284;20.890;2023-06-22T13:04:40;8.90;;;5.20;;
76826;SDS011;65788;52.284;20.890;2023-06-22T13:07:08;6.30;;;5.20;;
76826;SDS011;65788;52.284;20.890;2023-06-22T13:09:36;6.80;;;5.20;;
76826;SDS011;65788;52.284;20.890;2023-06-22T13:12:03;5.90;;;5.30;;
76826;SDS011;65788;52.284;20.890;2023-06-22T13:14:30;6.00;;;5.00;;
76826;SDS011;65788;52.284;20.890;2023-06-22T13:16:58;8.30;;;5.30;;
76826;SDS011;65788;52.284;20.890;2023-06-22T13:19:25;6.00;;;5.30;;
76826;SDS011;65788;52.284;20.890;2023-06-22T13:21:55;7.50;;;4.80;;
76826;SDS011;65788;52.284;20.890;2023-06-22T13:24:22;6.10;;;4.90;;
76826;SDS011;65788;52.284;20.890;2023-06-22T13:26:48;7.00;;;4.80;;
76826;SDS011;65788;52.284;20.890;2023-06-22T13:29:15;6.00;;;4.60;;
76826;SDS011;65788;52.284;20.890;2023-06-22T13:31:41;5.60;;;4.50;;
76826;SDS011;65788;52.284;20.890;2023-06-22T13:34:08;6.00;;;4.90;;
76826;SDS011;65788;52.284;20.890;2023-06-22T13:36:35;5.20;;;4.70;;
76826;SDS011;65788;52.284;20.890;2023-06-22T13:39:02;5.80;;;4.40;;
76826;SDS011;65788;52.284;20.890;2023-06-22T13:41:29;5.70;;;4.50;;
76826;SDS011;65788;52.284;20.890;2023-06-22T13:43:56;6.20;;;4.80;;
76826;SDS011;65788;52.284;20.890;2023-06-22T13:46:23;7.60;;;5.30;;
76826;SDS011;65788;52.284;20.890;2023-06-22T13:48:50;5.00;;;4.40;;
76826;SDS011;65788;52.284;20.890;2023-06-22T13:51:17;6.20;;;4.80;;
76826;SDS011;65788;52.284;20.890;2023-06-22T13:53:43;11.40;;;5.60;;
76826;SDS011;65788;52.284;20.890;2023-06-22T13:56:10;6.50;;;5.10;;
76826;SDS011;65788;52.284;20.890;2023-06-22T13:58:37;7.00;;;5.30;;
76826;SDS011;65788;52.284;20.890;2023-06-22T14:01:04;12.70;;;6.00;;
76826;SDS011;65788;52.284;20.890;2023-06-22T14:03:30;5.70;;;4.80;;
76826;SDS011;65788;52.284;20.890;2023-06-22T14:05:57;7.20;;;5.30;;
76826;SDS011;65788;52.284;20.890;2023-06-22T14:08:24;8.00;;;6.10;;
76826;SDS011;65788;52.284;20.890;2023-06-22T14:10:51;8.50;;;5.90;;
76826;SDS011;65788;52.284;20.890;2023-06-22T14:13:20;8.60;;;6.00;;
76826;SDS011;65788;52.284;20.890;2023-06-22T14:15:46;6.40;;;5.30;;
76826;SDS011;65788;52.284;20.890;2023-06-22T14:18:14;5.80;;;5.20;;
76826;SDS011;65788;52.284;20.890;2023-06-22T14:20:41;5.80;;;5.00;;
76826;SDS011;65788;52.284;20.890;2023-06-22T14:23:08;6.70;;;5.70;;
76826;SDS011;65788;52.284;20.890;2023-06-22T14:25:35;6.80;;;5.80;;
76826;SDS011;65788;52.284;20.890;2023-06-22T14:28:01;6.90;;;5.80;;
76826;SDS011;65788;52.284;20.890;2023-06-22T14:30:28;7.70;;;6.10;;
76826;SDS011;65788;52.284;20.890;2023-06-22T14:32:54;7.40;;;5.60;;
76826;SDS011;65788;52.284;20.890;2023-06-22T14:35:21;5.80;;;5.20;;
76826;SDS011;65788;52.284;20.890;2023-06-22T14:37:48;7.10;;;5.70;;